MET'MAP v2.0
soon released !

Expected late october,
this new version will be
more efficient, smarter,
and hosted on a brand new
server x3 powerfull...
...and still free !


Not compatible ?
Try the mobile version !

LOG IN : | Subscribe | Disclaimer | Who is Orbifly ? |
ICAO code :

TAF - DAAV Jijel Ferhat Abbas - 17 Feb 2020 17:43 UTC - Data Source NOAA   


- Airport Elevation : 36 ft
- IATA code : GJL
- No reported NOTAMs.


DAAV - Jijel Ferhat Abbas

Latest METAR recorded : 2015/08/11 08:00 DAAV 110800Z 31006KT 9999 SCT020TCU 28/23 Q1014
TAF TAF DAAV
Valid from the 17 at 12:00 until the 18 at 12:00 UTC


171100Z 1712/1812 32012KT 8000 FEW020
BECMG 1713/1716 04008KT
PROB30
TEMPO 1800/1808 2000 BR SCT008

Source NOAA


MET'MAP, your aeronautical weather chart ! - Copyright ORBIFLY December 2007

Programming & Development : Alexandra Zaïnal
Co-Developer : Marc-Olivier Méhu
Technical & hardware support : Manuel Goepfert
Concept & Financing : Baudouin d'Aumeries